sensor_id;sensor_type;location;lat;lon;timestamp;pressure;altitude;pressure_sealevel;temperature;humidity
46023;BME280;31756;47.936;16.224;2023-02-20T00:01:02;99441.81;;;5.77;100.00
46023;BME280;31756;47.936;16.224;2023-02-20T00:03:28;99434.53;;;5.41;100.00
46023;BME280;31756;47.936;16.224;2023-02-20T00:05:55;99428.31;;;5.22;100.00
46023;BME280;31756;47.936;16.224;2023-02-20T00:08:20;99438.84;;;4.92;100.00
46023;BME280;31756;47.936;16.224;2023-02-20T00:10:48;99429.31;;;4.78;100.00
46023;BME280;31756;47.936;16.224;2023-02-20T00:13:13;99425.66;;;4.64;100.00
46023;BME280;31756;47.936;16.224;2023-02-20T00:15:39;99442.50;;;4.58;100.00
46023;BME280;31756;47.936;16.224;2023-02-20T00:18:04;99443.28;;;4.54;100.00
46023;BME280;31756;47.936;16.224;2023-02-20T00:20:31;99438.97;;;4.50;100.00
46023;BME280;31756;47.936;16.224;2023-02-20T00:22:57;99443.25;;;4.53;100.00
46023;BME280;31756;47.936;16.224;2023-02-20T00:25:22;99448.25;;;4.50;100.00
46023;BME280;31756;47.936;16.224;2023-02-20T00:27:48;99449.97;;;4.49;100.00
46023;BME280;31756;47.936;16.224;2023-02-20T00:30:14;99446.50;;;4.46;100.00
46023;BME280;31756;47.936;16.224;2023-02-20T00:32:40;99445.66;;;4.45;100.00
46023;BME280;31756;47.936;16.224;2023-02-20T00:35:07;99450.84;;;4.51;100.00
46023;BME280;31756;47.936;16.224;2023-02-20T00:37:33;99447.34;;;4.45;100.00
46023;BME280;31756;47.936;16.224;2023-02-20T00:39:58;99459.22;;;4.47;100.00
46023;BME280;31756;47.936;16.224;2023-02-20T00:42:24;99451.53;;;4.43;100.00
46023;BME280;31756;47.936;16.224;2023-02-20T00:44:49;99458.41;;;4.50;100.00
46023;BME280;31756;47.936;16.224;2023-02-20T00:47:15;99459.13;;;4.43;100.00
46023;BME280;31756;47.936;16.224;2023-02-20T00:49:40;99461.63;;;4.40;100.00
46023;BME280;31756;47.936;16.224;2023-02-20T00:52:07;99470.94;;;4.39;100.00
46023;BME280;31756;47.936;16.224;2023-02-20T00:54:33;99467.53;;;4.39;100.00
46023;BME280;31756;47.936;16.224;2023-02-20T00:56:59;99462.53;;;4.43;100.00
46023;BME280;31756;47.936;16.224;2023-02-20T00:59:25;99473.44;;;4.38;100.00
46023;BME280;31756;47.936;16.224;2023-02-20T01:01:50;99471.78;;;4.41;100.00
46023;BME280;31756;47.936;16.224;2023-02-20T01:04:16;99463.34;;;4.42;100.00
46023;BME280;31756;47.936;16.224;2023-02-20T01:06:42;99465.88;;;4.41;100.00
46023;BME280;31756;47.936;16.224;2023-02-20T01:09:10;99470.03;;;4.36;100.00
46023;BME280;31756;47.936;16.224;2023-02-20T01:11:36;99475.91;;;4.35;100.00
46023;BME280;31756;47.936;16.224;2023-02-20T01:14:01;99464.13;;;4.37;100.00
46023;BME280;31756;47.936;16.224;2023-02-20T01:16:28;99457.25;;;4.31;100.00
46023;BME280;31756;47.936;16.224;2023-02-20T01:18:54;99459.00;;;4.35;100.00
46023;BME280;31756;47.936;16.224;2023-02-20T01:21:19;99457.19;;;4.28;100.00
46023;BME280;31756;47.936;16.224;2023-02-20T01:23:45;99454.47;;;4.21;100.00
46023;BME280;31756;47.936;16.224;2023-02-20T01:26:11;99462.03;;;4.18;100.00
46023;BME280;31756;47.936;16.224;2023-02-20T01:28:37;99463.81;;;4.22;100.00
46023;BME280;31756;47.936;16.224;2023-02-20T01:31:02;99465.44;;;4.18;100.00
46023;BME280;31756;47.936;16.224;2023-02-20T01:33:31;99467.94;;;4.17;100.00
46023;BME280;31756;47.936;16.224;2023-02-20T01:35:56;99472.16;;;4.16;100.00
46023;BME280;31756;47.936;16.224;2023-02-20T01:38:22;99467.94;;;4.17;100.00
46023;BME280;31756;47.936;16.224;2023-02-20T01:40:48;99470.38;;;4.12;100.00
46023;BME280;31756;47.936;16.224;2023-02-20T01:43:14;99476.25;;;4.09;100.00
46023;BME280;31756;47.936;16.224;2023-02-20T01:45:41;99468.56;;;4.05;100.00
46023;BME280;31756;47.936;16.224;2023-02-20T01:48:15;99473.56;;;4.02;100.00
46023;BME280;31756;47.936;16.224;2023-02-20T01:50:41;99475.28;;;4.03;100.00
46023;BME280;31756;47.936;16.224;2023-02-20T01:53:08;99471.03;;;4.02;100.00
46023;BME280;31756;47.936;16.224;2023-02-20T01:55:39;99475.16;;;3.97;100.00
46023;BME280;31756;47.936;16.224;2023-02-20T01:58:08;99484.59;;;4.04;100.00
46023;BME280;31756;47.936;16.224;2023-02-20T02:00:36;99482.13;;;4.07;100.00
46023;BME280;31756;47.936;16.224;2023-02-20T02:03:06;99483.06;;;4.10;100.00
46023;BME280;31756;47.936;16.224;2023-02-20T02:05:33;99491.44;;;4.08;100.00
46023;BME280;31756;47.936;16.224;2023-02-20T02:08:02;99494.03;;;4.09;100.00
46023;BME280;31756;47.936;16.224;2023-02-20T02:10:35;99492.97;;;4.00;100.00
46023;BME280;31756;47.936;16.224;2023-02-20T02:13:02;99493.78;;;3.99;100.00
46023;BME280;31756;47.936;16.224;2023-02-20T02:15:27;99492.91;;;3.97;100.00
46023;BME280;31756;47.936;16.224;2023-02-20T02:26:04;99475.41;;;3.70;100.00
46023;BME280;31756;47.936;16.224;2023-02-20T02:29:23;99478.75;;;3.67;100.00
46023;BME280;31756;47.936;16.224;2023-02-20T02:39:22;99472.00;;;3.68;100.00
46023;BME280;31756;47.936;16.224;2023-02-20T02:44:29;99491.22;;;3.58;100.00
46023;BME280;31756;47.936;16.224;2023-02-20T02:46:56;99490.41;;;3.61;100.00
46023;BME280;31756;47.936;16.224;2023-02-20T02:49:46;99503.84;;;3.57;100.00
46023;BME280;31756;47.936;16.224;2023-02-20T02:52:14;99497.09;;;3.56;100.00
46023;BME280;31756;47.936;16.224;2023-02-20T02:55:00;99498.66;;;3.52;100.00
46023;BME280;31756;47.936;16.224;2023-02-20T02:57:26;99497.97;;;3.58;100.00
46023;BME280;31756;47.936;16.224;2023-02-20T03:02:24;99502.91;;;3.52;100.00
46023;BME280;31756;47.936;16.224;2023-02-20T03:04:52;99498.06;;;3.62;100.00
46023;BME280;31756;47.936;16.224;2023-02-20T03:07:19;99507.03;;;3.48;100.00
46023;BME280;31756;47.936;16.224;2023-02-20T03:09:50;99492.69;;;3.49;100.00
46023;BME280;31756;47.936;16.224;2023-02-20T03:12:16;99501.34;;;3.58;100.00
46023;BME280;31756;47.936;16.224;2023-02-20T03:14:45;99492.03;;;3.57;100.00
46023;BME280;31756;47.936;16.224;2023-02-20T03:20:18;99486.16;;;3.58;100.00
46023;BME280;31756;47.936;16.224;2023-02-20T03:22:46;99482.81;;;3.59;100.00
46023;BME280;31756;47.936;16.224;2023-02-20T03:25:21;99473.63;;;3.66;100.00
46023;BME280;31756;47.936;16.224;2023-02-20T03:30:17;99467.69;;;3.65;100.00
46023;BME280;31756;47.936;16.224;2023-02-20T03:32:46;99464.34;;;3.66;100.00
46023;BME280;31756;47.936;16.224;2023-02-20T03:35:33;99465.16;;;3.64;100.00
46023;BME280;31756;47.936;16.224;2023-02-20T03:38:18;99458.53;;;3.71;100.00
46023;BME280;31756;47.936;16.224;2023-02-20T03:41:04;99465.16;;;3.64;100.00
46023;BME280;31756;47.936;16.224;2023-02-20T03:43:48;99462.47;;;3.56;100.00
46023;BME280;31756;47.936;16.224;2023-02-20T03:46:19;99468.25;;;3.51;100.00
46023;BME280;31756;47.936;16.224;2023-02-20T03:51:15;99475.84;;;3.51;100.00
46023;BME280;31756;47.936;16.224;2023-02-20T03:53:52;99476.66;;;3.50;100.00
46023;BME280;31756;47.936;16.224;2023-02-20T03:56:24;99456.44;;;3.53;100.00
46023;BME280;31756;47.936;16.224;2023-02-20T03:58:53;99461.72;;;3.62;100.00
46023;BME280;31756;47.936;16.224;2023-02-20T04:01:20;99476.75;;;3.54;100.00
46023;BME280;31756;47.936;16.224;2023-02-20T04:03:47;99470.94;;;3.58;100.00
46023;BME280;31756;47.936;16.224;2023-02-20T04:06:14;99480.38;;;3.64;100.00
46023;BME280;31756;47.936;16.224;2023-02-20T04:08:48;99470.94;;;3.99;100.00
46023;BME280;31756;47.936;16.224;2023-02-20T04:11:18;99466.69;;;3.96;100.00
46023;BME280;31756;47.936;16.224;2023-02-20T04:13:47;99467.47;;;4.36;100.00
46023;BME280;31756;47.936;16.224;2023-02-20T04:16:14;99478.09;;;4.17;100.00
46023;BME280;31756;47.936;16.224;2023-02-20T04:18:41;99477.88;;;4.07;100.00
46023;BME280;31756;47.936;16.224;2023-02-20T04:21:08;99472.41;;;4.28;100.00
46023;BME280;31756;47.936;16.224;2023-02-20T04:23:39;99459.63;;;4.69;100.00
46023;BME280;31756;47.936;16.224;2023-02-20T04:26:08;99455.47;;;5.26;100.00
46023;BME280;31756;47.936;16.224;2023-02-20T04:28:39;99448.19;;;4.92;100.00
46023;BME280;31756;47.936;16.224;2023-02-20T04:31:06;99443.44;;;4.62;100.00
46023;BME280;31756;47.936;16.224;2023-02-20T04:33:34;99440.69;;;4.51;100.00
46023;BME280;31756;47.936;16.224;2023-02-20T04:36:04;99428.84;;;4.52;100.00
46023;BME280;31756;47.936;16.224;2023-02-20T04:38:30;99427.13;;;4.51;100.00
46023;BME280;31756;47.936;16.224;2023-02-20T04:40:56;99419.13;;;4.78;100.00
46023;BME280;31756;47.936;16.224;2023-02-20T04:43:22;99417.09;;;4.58;100.00
46023;BME280;31756;47.936;16.224;2023-02-20T04:45:49;99411.69;;;4.39;100.00
46023;BME280;31756;47.936;16.224;2023-02-20T04:48:16;99398.22;;;4.43;100.00
46023;BME280;31756;47.936;16.224;2023-02-20T04:50:41;99389.13;;;4.55;100.00
46023;BME280;31756;47.936;16.224;2023-02-20T04:53:08;99408.28;;;4.38;100.00
46023;BME280;31756;47.936;16.224;2023-02-20T04:55:34;99404.91;;;4.87;100.00
46023;BME280;31756;47.936;16.224;2023-02-20T04:58:05;99411.97;;;4.55;100.00
46023;BME280;31756;47.936;16.224;2023-02-20T05:00:43;99426.09;;;4.88;100.00
46023;BME280;31756;47.936;16.224;2023-02-20T05:03:08;99418.84;;;4.61;100.00
46023;BME280;31756;47.936;16.224;2023-02-20T05:05:33;99425.28;;;4.42;100.00
46023;BME280;31756;47.936;16.224;2023-02-20T05:08:00;99434.31;;;4.27;100.00
46023;BME280;31756;47.936;16.224;2023-02-20T05:10:26;99419.81;;;4.20;100.00
46023;BME280;31756;47.936;16.224;2023-02-20T05:12:52;99432.16;;;4.03;100.00
46023;BME280;31756;47.936;16.224;2023-02-20T05:15:18;99437.16;;;4.00;100.00
46023;BME280;31756;47.936;16.224;2023-02-20T05:17:44;99437.25;;;4.03;100.00
46023;BME280;31756;47.936;16.224;2023-02-20T05:20:10;99428.69;;;3.99;100.00
46023;BME280;31756;47.936;16.224;2023-02-20T05:22:35;99433.72;;;3.96;100.00
46023;BME280;31756;47.936;16.224;2023-02-20T05:25:00;99415.91;;;3.93;100.00
46023;BME280;31756;47.936;16.224;2023-02-20T05:27:26;99420.00;;;3.88;100.00
46023;BME280;31756;47.936;16.224;2023-02-20T05:29:53;99424.13;;;3.83;100.00
46023;BME280;31756;47.936;16.224;2023-02-20T05:32:19;99414.88;;;3.85;100.00
46023;BME280;31756;47.936;16.224;2023-02-20T05:34:45;99407.91;;;3.75;100.00
46023;BME280;31756;47.936;16.224;2023-02-20T05:37:12;99418.19;;;3.83;100.00
46023;BME280;31756;47.936;16.224;2023-02-20T05:39:38;99408.91;;;3.83;100.00
46023;BME280;31756;47.936;16.224;2023-02-20T05:42:05;99410.53;;;3.80;100.00
46023;BME280;31756;47.936;16.224;2023-02-20T05:44:31;99408.00;;;3.80;100.00
46023;BME280;31756;47.936;16.224;2023-02-20T05:46:56;99414.66;;;3.73;100.00
46023;BME280;31756;47.936;16.224;2023-02-20T05:49:22;99417.19;;;3.75;100.00
46023;BME280;31756;47.936;16.224;2023-02-20T05:51:48;99405.41;;;3.77;100.00
46023;BME280;31756;47.936;16.224;2023-02-20T05:54:18;99410.28;;;3.67;100.00
46023;BME280;31756;47.936;16.224;2023-02-20T05:56:44;99415.47;;;3.74;100.00
46023;BME280;31756;47.936;16.224;2023-02-20T05:59:10;99410.38;;;3.72;100.00
46023;BME280;31756;47.936;16.224;2023-02-20T06:01:35;99418.72;;;3.66;100.00
46023;BME280;31756;47.936;16.224;2023-02-20T06:04:01;99417.00;;;3.65;100.00
46023;BME280;31756;47.936;16.224;2023-02-20T06:06:31;99416.13;;;3.65;100.00
46023;BME280;31756;47.936;16.224;2023-02-20T06:08:56;99417.81;;;3.63;100.00
46023;BME280;31756;47.936;16.224;2023-02-20T06:11:22;99424.66;;;3.67;100.00
46023;BME280;31756;47.936;16.224;2023-02-20T06:13:47;99412.78;;;3.66;100.00
46023;BME280;31756;47.936;16.224;2023-02-20T06:16:12;99424.88;;;3.78;100.00
46023;BME280;31756;47.936;16.224;2023-02-20T06:18:45;99434.06;;;3.73;100.00
46023;BME280;31756;47.936;16.224;2023-02-20T06:21:11;99434.13;;;3.76;100.00
46023;BME280;31756;47.936;16.224;2023-02-20T06:23:36;99443.31;;;3.71;100.00
46023;BME280;31756;47.936;16.224;2023-02-20T06:26:03;99439.25;;;3.77;100.00
46023;BME280;31756;47.936;16.224;2023-02-20T06:28:28;99456.03;;;3.74;100.00
46023;BME280;31756;47.936;16.224;2023-02-20T06:30:54;99435.66;;;4.09;100.00
46023;BME280;31756;47.936;16.224;2023-02-20T06:33:19;99437.66;;;4.24;100.00
46023;BME280;31756;47.936;16.224;2023-02-20T06:35:45;99424.13;;;4.25;100.00
46023;BME280;31756;47.936;16.224;2023-02-20T06:38:10;99426.91;;;4.39;100.00
46023;BME280;31756;47.936;16.224;2023-02-20T06:40:37;99433.78;;;4.44;100.00
46023;BME280;31756;47.936;16.224;2023-02-20T06:43:02;99429.97;;;4.68;100.00
46023;BME280;31756;47.936;16.224;2023-02-20T06:45:28;99422.56;;;5.35;100.00
46023;BME280;31756;47.936;16.224;2023-02-20T06:47:53;99431.19;;;6.08;100.00
46023;BME280;31756;47.936;16.224;2023-02-20T06:50:19;99416.00;;;7.06;100.00
46023;BME280;31756;47.936;16.224;2023-02-20T06:52:44;99414.75;;;7.72;100.00
46023;BME280;31756;47.936;16.224;2023-02-20T06:55:09;99418.31;;;8.15;100.00
46023;BME280;31756;47.936;16.224;2023-02-20T06:57:35;99429.44;;;8.23;100.00
46023;BME280;31756;47.936;16.224;2023-02-20T07:00:00;99420.94;;;8.33;100.00
46023;BME280;31756;47.936;16.224;2023-02-20T07:02:26;99432.91;;;8.45;100.00
46023;BME280;31756;47.936;16.224;2023-02-20T07:04:51;99444.69;;;8.09;100.00
46023;BME280;31756;47.936;16.224;2023-02-20T07:07:17;99444.19;;;7.26;100.00
46023;BME280;31756;47.936;16.224;2023-02-20T07:09:42;99441.91;;;6.55;100.00
46023;BME280;31756;47.936;16.224;2023-02-20T07:12:08;99441.69;;;6.37;100.00
46023;BME280;31756;47.936;16.224;2023-02-20T07:14:33;99439.84;;;6.22;100.00
46023;BME280;31756;47.936;16.224;2023-02-20T07:16:59;99441.97;;;5.87;100.00
46023;BME280;31756;47.936;16.224;2023-02-20T07:19:24;99439.38;;;5.86;100.00
46023;BME280;31756;47.936;16.224;2023-02-20T07:21:49;99436.72;;;5.78;100.00
46023;BME280;31756;47.936;16.224;2023-02-20T07:24:15;99421.41;;;5.72;100.00
46023;BME280;31756;47.936;16.224;2023-02-20T07:26:40;99420.53;;;5.73;100.00
46023;BME280;31756;47.936;16.224;2023-02-20T07:29:06;99416.16;;;5.62;100.00
46023;BME280;31756;47.936;16.224;2023-02-20T07:31:32;99417.00;;;5.61;100.00
46023;BME280;31756;47.936;16.224;2023-02-20T07:33:58;99425.38;;;5.53;100.00
46023;BME280;31756;47.936;16.224;2023-02-20T07:36:23;99411.91;;;5.59;100.00
46023;BME280;31756;47.936;16.224;2023-02-20T07:38:59;99401.72;;;5.61;100.00
46023;BME280;31756;47.936;16.224;2023-02-20T07:41:26;99399.09;;;5.53;100.00
46023;BME280;31756;47.936;16.224;2023-02-20T07:43:54;99409.28;;;5.55;100.00
46023;BME280;31756;47.936;16.224;2023-02-20T07:46:20;99394.91;;;5.57;100.00
46023;BME280;31756;47.936;16.224;2023-02-20T07:48:46;99402.59;;;5.60;100.00
46023;BME280;31756;47.936;16.224;2023-02-20T07:51:11;99409.44;;;5.67;100.00
46023;BME280;31756;47.936;16.224;2023-02-20T07:53:37;99406.13;;;5.72;100.00
46023;BME280;31756;47.936;16.224;2023-02-20T07:56:03;99404.47;;;5.73;100.00
46023;BME280;31756;47.936;16.224;2023-02-20T07:58:29;99393.53;;;5.83;100.00
46023;BME280;31756;47.936;16.224;2023-02-20T08:00:54;99407.38;;;6.03;100.00
46023;BME280;31756;47.936;16.224;2023-02-20T08:03:20;99396.56;;;6.19;100.00
46023;BME280;31756;47.936;16.224;2023-02-20T08:05:45;99379.69;;;6.30;100.00
46023;BME280;31756;47.936;16.224;2023-02-20T08:08:11;99385.00;;;6.55;100.00
46023;BME280;31756;47.936;16.224;2023-02-20T08:10:36;99389.34;;;6.65;100.00
46023;BME280;31756;47.936;16.224;2023-02-20T08:13:02;99375.94;;;6.85;100.00
46023;BME280;31756;47.936;16.224;2023-02-20T08:15:27;99370.22;;;7.20;100.00
46023;BME280;31756;47.936;16.224;2023-02-20T08:17:53;99362.78;;;7.59;100.00
46023;BME280;31756;47.936;16.224;2023-02-20T08:20:18;99375.00;;;8.71;100.00
46023;BME280;31756;47.936;16.224;2023-02-20T08:22:45;99370.72;;;9.25;100.00
46023;BME280;31756;47.936;16.224;2023-02-20T08:25:11;99375.78;;;9.47;100.00
46023;BME280;31756;47.936;16.224;2023-02-20T08:27:40;99376.59;;;9.61;100.00
46023;BME280;31756;47.936;16.224;2023-02-20T08:30:06;99379.13;;;9.71;100.00
46023;BME280;31756;47.936;16.224;2023-02-20T08:32:31;99384.19;;;9.86;100.00
46023;BME280;31756;47.936;16.224;2023-02-20T08:34:57;99376.47;;;9.90;100.00
46023;BME280;31756;47.936;16.224;2023-02-20T08:37:22;99365.31;;;10.02;100.00
46023;BME280;31756;47.936;16.224;2023-02-20T08:39:48;99368.72;;;10.07;100.00
46023;BME280;31756;47.936;16.224;2023-02-20T08:42:14;99372.13;;;10.09;100.00
46023;BME280;31756;47.936;16.224;2023-02-20T08:44:40;99367.84;;;10.14;100.00
46023;BME280;31756;47.936;16.224;2023-02-20T08:47:05;99375.53;;;10.16;100.00
46023;BME280;31756;47.936;16.224;2023-02-20T08:49:31;99361.75;;;10.35;100.00
46023;BME280;31756;47.936;16.224;2023-02-20T08:51:56;99364.25;;;10.47;100.00
46023;BME280;31756;47.936;16.224;2023-02-20T08:54:22;99358.16;;;10.60;100.00
46023;BME280;31756;47.936;16.224;2023-02-20T08:56:47;99369.13;;;10.80;100.00
46023;BME280;31756;47.936;16.224;2023-02-20T08:59:14;99365.75;;;10.72;100.00
46023;BME280;31756;47.936;16.224;2023-02-20T09:01:40;99356.41;;;10.67;100.00
46023;BME280;31756;47.936;16.224;2023-02-20T09:04:12;99353.81;;;10.65;100.00
46023;BME280;31756;47.936;16.224;2023-02-20T09:06:40;99349.66;;;10.55;100.00
46023;BME280;31756;47.936;16.224;2023-02-20T09:09:07;99351.34;;;10.56;100.00
46023;BME280;31756;47.936;16.224;2023-02-20T09:11:32;99347.94;;;10.52;100.00
46023;BME280;31756;47.936;16.224;2023-02-20T09:13:58;99331.63;;;10.61;100.00
46023;BME280;31756;47.936;16.224;2023-02-20T09:16:24;99324.72;;;10.72;100.00
46023;BME280;31756;47.936;16.224;2023-02-20T09:18:50;99324.63;;;10.84;100.00
46023;BME280;31756;47.936;16.224;2023-02-20T09:21:18;99316.84;;;10.93;100.00
46023;BME280;31756;47.936;16.224;2023-02-20T09:23:44;99324.41;;;11.04;100.00
46023;BME280;31756;47.936;16.224;2023-02-20T09:26:09;99332.16;;;10.99;100.00
46023;BME280;31756;47.936;16.224;2023-02-20T09:28:35;99331.09;;;11.22;100.00
46023;BME280;31756;47.936;16.224;2023-02-20T09:31:01;99315.69;;;11.23;100.00
46023;BME280;31756;47.936;16.224;2023-02-20T09:33:27;99334.69;;;11.07;100.00
46023;BME280;31756;47.936;16.224;2023-02-20T09:35:52;99328.69;;;11.04;100.00
46023;BME280;31756;47.936;16.224;2023-02-20T09:38:19;99329.47;;;11.15;100.00
46023;BME280;31756;47.936;16.224;2023-02-20T09:40:45;99341.44;;;11.13;99.56
46023;BME280;31756;47.936;16.224;2023-02-20T09:46:19;99324.19;;;11.27;98.29
46023;BME280;31756;47.936;16.224;2023-02-20T09:51:15;99308.56;;;11.48;98.31
46023;BME280;31756;47.936;16.224;2023-02-20T09:53:46;99300.00;;;11.46;97.75
46023;BME280;31756;47.936;16.224;2023-02-20T09:56:18;99303.47;;;11.42;95.00
46023;BME280;31756;47.936;16.224;2023-02-20T09:58:47;99294.00;;;11.47;98.11
46023;BME280;31756;47.936;16.224;2023-02-20T10:01:14;99304.31;;;11.44;99.91
46023;BME280;31756;47.936;16.224;2023-02-20T10:06:27;99299.13;;;11.49;95.85
46023;BME280;31756;47.936;16.224;2023-02-20T10:08:54;99292.34;;;11.43;95.84
46023;BME280;31756;47.936;16.224;2023-02-20T10:13:55;99288.16;;;11.36;94.23
46023;BME280;31756;47.936;16.224;2023-02-20T10:26:53;99293.25;;;11.37;93.27
46023;BME280;31756;47.936;16.224;2023-02-20T10:29:23;99285.66;;;11.30;91.70
46023;BME280;31756;47.936;16.224;2023-02-20T10:31:54;99259.88;;;11.40;91.72
46023;BME280;31756;47.936;16.224;2023-02-20T10:36:53;99251.09;;;11.55;87.32
46023;BME280;31756;47.936;16.224;2023-02-20T10:39:20;99256.97;;;11.66;88.56
46023;BME280;31756;47.936;16.224;2023-02-20T10:42:00;99245.50;;;11.92;89.29
46023;BME280;31756;47.936;16.224;2023-02-20T10:49:46;99234.22;;;12.02;88.21
46023;BME280;31756;47.936;16.224;2023-02-20T10:52:15;99220.44;;;12.07;87.97
46023;BME280;31756;47.936;16.224;2023-02-20T10:54:44;99213.50;;;12.11;86.19
46023;BME280;31756;47.936;16.224;2023-02-20T10:57:19;99215.09;;;12.18;87.06
46023;BME280;31756;47.936;16.224;2023-02-20T11:02:24;99212.56;;;12.16;84.24
46023;BME280;31756;47.936;16.224;2023-02-20T11:04:56;99210.84;;;12.17;85.47
46023;BME280;31756;47.936;16.224;2023-02-20T11:07:24;99206.50;;;12.20;84.91
46023;BME280;31756;47.936;16.224;2023-02-20T11:09:50;99196.88;;;12.31;85.25
46023;BME280;31756;47.936;16.224;2023-02-20T11:12:27;99193.28;;;12.42;83.48
46023;BME280;31756;47.936;16.224;2023-02-20T11:14:56;99192.44;;;12.43;78.63
46023;BME280;31756;47.936;16.224;2023-02-20T11:17:24;99186.97;;;12.59;78.78
46023;BME280;31756;47.936;16.224;2023-02-20T11:19:52;99169.69;;;12.67;79.75
46023;BME280;31756;47.936;16.224;2023-02-20T11:22:18;99171.47;;;12.64;77.45
46023;BME280;31756;47.936;16.224;2023-02-20T11:25:22;99170.63;;;12.63;78.44
46023;BME280;31756;47.936;16.224;2023-02-20T11:27:50;99166.53;;;12.96;77.10
46023;BME280;31756;47.936;16.224;2023-02-20T11:32:42;99159.56;;;13.43;70.89
46023;BME280;31756;47.936;16.224;2023-02-20T11:37:40;99154.69;;;13.69;71.73
46023;BME280;31756;47.936;16.224;2023-02-20T11:42:50;99147.69;;;13.74;66.25
46023;BME280;31756;47.936;16.224;2023-02-20T11:45:19;99149.66;;;13.63;60.80
46023;BME280;31756;47.936;16.224;2023-02-20T11:48:05;99145.63;;;13.51;63.71
46023;BME280;31756;47.936;16.224;2023-02-20T11:50:37;99139.56;;;13.54;62.79
46023;BME280;31756;47.936;16.224;2023-02-20T11:53:03;99139.00;;;13.41;66.25
46023;BME280;31756;47.936;16.224;2023-02-20T11:55:29;99128.97;;;13.29;61.45
46023;BME280;31756;47.936;16.224;2023-02-20T11:57:55;99142.78;;;13.25;64.61
46023;BME280;31756;47.936;16.224;2023-02-20T12:00:24;99137.53;;;13.31;61.50
46023;BME280;31756;47.936;16.224;2023-02-20T12:02:54;99138.38;;;13.32;62.32
46023;BME280;31756;47.936;16.224;2023-02-20T12:05:21;99132.47;;;13.26;58.89
46023;BME280;31756;47.936;16.224;2023-02-20T12:08:00;99141.09;;;13.24;59.30
46023;BME280;31756;47.936;16.224;2023-02-20T12:12:51;99128.84;;;13.35;60.31
46023;BME280;31756;47.936;16.224;2023-02-20T12:15:18;99121.50;;;13.55;61.58
46023;BME280;31756;47.936;16.224;2023-02-20T12:20:28;99104.34;;;13.54;57.41
46023;BME280;31756;47.936;16.224;2023-02-20T12:23:02;99098.19;;;13.61;56.88
46023;BME280;31756;47.936;16.224;2023-02-20T12:28:06;99086.16;;;13.62;56.81
46023;BME280;31756;47.936;16.224;2023-02-20T12:30:46;99083.03;;;13.48;54.49
46023;BME280;31756;47.936;16.224;2023-02-20T12:46:30;99056.44;;;14.15;53.16
46023;BME280;31756;47.936;16.224;2023-02-20T12:51:31;99049.03;;;14.35;53.51
46023;BME280;31756;47.936;16.224;2023-02-20T12:56:38;99025.09;;;14.61;52.14
46023;BME280;31756;47.936;16.224;2023-02-20T12:59:27;99023.88;;;14.73;53.36
46023;BME280;31756;47.936;16.224;2023-02-20T13:01:52;99009.50;;;14.64;53.21
46023;BME280;31756;47.936;16.224;2023-02-20T13:10:16;99012.22;;;14.29;50.42
46023;BME280;31756;47.936;16.224;2023-02-20T13:12:44;98994.03;;;14.33;48.24
46023;BME280;31756;47.936;16.224;2023-02-20T13:15:19;98994.94;;;14.63;49.73
46023;BME280;31756;47.936;16.224;2023-02-20T13:22:56;98992.41;;;14.60;49.25
46023;BME280;31756;47.936;16.224;2023-02-20T13:27:59;98991.53;;;14.61;49.02
46023;BME280;31756;47.936;16.224;2023-02-20T13:30:25;98988.16;;;14.59;47.76
46023;BME280;31756;47.936;16.224;2023-02-20T13:33:11;98979.75;;;14.52;48.89
46023;BME280;31756;47.936;16.224;2023-02-20T13:40:36;98973.63;;;14.84;48.46
46023;BME280;31756;47.936;16.224;2023-02-20T13:45:45;98964.53;;;15.27;45.90
46023;BME280;31756;47.936;16.224;2023-02-20T13:53:39;98954.66;;;15.39;43.83
46023;BME280;31756;47.936;16.224;2023-02-20T13:56:13;98949.88;;;15.27;43.53
46023;BME280;31756;47.936;16.224;2023-02-20T13:58:39;98954.63;;;15.13;44.76
46023;BME280;31756;47.936;16.224;2023-02-20T14:01:05;98955.81;;;15.29;43.75
46023;BME280;31756;47.936;16.224;2023-02-20T14:03:32;98961.09;;;15.26;44.21
46023;BME280;31756;47.936;16.224;2023-02-20T14:06:01;98949.88;;;15.01;43.93
46023;BME280;31756;47.936;16.224;2023-02-20T14:08:27;98943.66;;;15.06;43.89
46023;BME280;31756;47.936;16.224;2023-02-20T14:10:53;98947.44;;;14.96;44.42
46023;BME280;31756;47.936;16.224;2023-02-20T14:13:22;98941.38;;;14.97;44.21
46023;BME280;31756;47.936;16.224;2023-02-20T14:15:51;98933.78;;;14.93;44.06
46023;BME280;31756;47.936;16.224;2023-02-20T14:18:20;98935.31;;;14.98;43.23
46023;BME280;31756;47.936;16.224;2023-02-20T14:20:48;98935.56;;;14.91;45.28
46023;BME280;31756;47.936;16.224;2023-02-20T14:23:19;98954.22;;;14.99;45.17
46023;BME280;31756;47.936;16.224;2023-02-20T14:25:52;98934.13;;;15.08;43.40
46023;BME280;31756;47.936;16.224;2023-02-20T14:28:18;98929.50;;;15.18;43.90
46023;BME280;31756;47.936;16.224;2023-02-20T14:30:44;98911.31;;;15.21;44.05
46023;BME280;31756;47.936;16.224;2023-02-20T14:33:28;98918.66;;;15.33;42.75
46023;BME280;31756;47.936;16.224;2023-02-20T14:35:57;98914.22;;;15.37;42.53
46023;BME280;31756;47.936;16.224;2023-02-20T14:40:56;98918.84;;;15.53;41.64
46023;BME280;31756;47.936;16.224;2023-02-20T14:43:22;98913.59;;;15.57;42.02
46023;BME280;31756;47.936;16.224;2023-02-20T14:46:04;98917.78;;;15.61;41.96
46023;BME280;31756;47.936;16.224;2023-02-20T14:48:34;98906.31;;;15.68;41.41
46023;BME280;31756;47.936;16.224;2023-02-20T14:51:24;98898.91;;;15.82;41.19
46023;BME280;31756;47.936;16.224;2023-02-20T14:56:47;98897.50;;;15.48;41.44
46023;BME280;31756;47.936;16.224;2023-02-20T14:59:21;98900.06;;;15.48;42.75
46023;BME280;31756;47.936;16.224;2023-02-20T15:01:48;98884.78;;;15.42;41.71